sensor_id;sensor_type;location;lat;lon;timestamp;temperature;humidity
32296;DHT22;18781;51.550;5.418;2022-12-18T00:00:29;0.20;68.50
32296;DHT22;18781;51.550;5.418;2022-12-18T00:02:55;0.20;68.60
32296;DHT22;18781;51.550;5.418;2022-12-18T00:05:21;0.20;68.60
32296;DHT22;18781;51.550;5.418;2022-12-18T00:07:46;0.10;68.40
32296;DHT22;18781;51.550;5.418;2022-12-18T00:10:12;0.10;68.20
32296;DHT22;18781;51.550;5.418;2022-12-18T00:12:37;0.10;68.10
32296;DHT22;18781;51.550;5.418;2022-12-18T00:15:03;0.10;68.20
32296;DHT22;18781;51.550;5.418;2022-12-18T00:17:29;0.10;68.20
32296;DHT22;18781;51.550;5.418;2022-12-18T00:19:55;0.00;68.30
32296;DHT22;18781;51.550;5.418;2022-12-18T00:22:20;0.00;68.40
32296;DHT22;18781;51.550;5.418;2022-12-18T00:24:46;0.00;68.90
32296;DHT22;18781;51.550;5.418;2022-12-18T00:27:11;0.00;68.40
32296;DHT22;18781;51.550;5.418;2022-12-18T00:29:38;-0.10;68.30
32296;DHT22;18781;51.550;5.418;2022-12-18T00:32:03;-0.10;68.30
32296;DHT22;18781;51.550;5.418;2022-12-18T00:34:29;-0.10;68.20
32296;DHT22;18781;51.550;5.418;2022-12-18T00:36:55;-0.10;68.20
32296;DHT22;18781;51.550;5.418;2022-12-18T00:39:21;-0.20;68.10
32296;DHT22;18781;51.550;5.418;2022-12-18T00:41:46;-0.20;68.00
32296;DHT22;18781;51.550;5.418;2022-12-18T00:44:30;-0.20;67.90
32296;DHT22;18781;51.550;5.418;2022-12-18T00:46:56;-0.30;68.00
32296;DHT22;18781;51.550;5.418;2022-12-18T00:49:21;-0.30;67.90
32296;DHT22;18781;51.550;5.418;2022-12-18T00:51:47;-0.30;68.00
32296;DHT22;18781;51.550;5.418;2022-12-18T00:54:13;-0.40;67.90
32296;DHT22;18781;51.550;5.418;2022-12-18T00:56:39;-0.40;67.90
32296;DHT22;18781;51.550;5.418;2022-12-18T00:59:05;-0.40;68.00
32296;DHT22;18781;51.550;5.418;2022-12-18T01:01:31;-0.40;68.10
32296;DHT22;18781;51.550;5.418;2022-12-18T01:03:58;-0.50;68.20
32296;DHT22;18781;51.550;5.418;2022-12-18T01:06:24;-0.50;68.20
32296;DHT22;18781;51.550;5.418;2022-12-18T01:08:49;-0.50;68.20
32296;DHT22;18781;51.550;5.418;2022-12-18T01:11:17;-0.50;68.10
32296;DHT22;18781;51.550;5.418;2022-12-18T01:13:43;-0.60;67.80
32296;DHT22;18781;51.550;5.418;2022-12-18T01:16:12;-0.60;67.80
32296;DHT22;18781;51.550;5.418;2022-12-18T01:18:38;-0.60;67.80
32296;DHT22;18781;51.550;5.418;2022-12-18T01:21:08;-0.70;67.70
32296;DHT22;18781;51.550;5.418;2022-12-18T01:23:34;-0.70;67.70
32296;DHT22;18781;51.550;5.418;2022-12-18T01:26:15;-0.70;67.90
32296;DHT22;18781;51.550;5.418;2022-12-18T01:28:41;-0.70;67.90
32296;DHT22;18781;51.550;5.418;2022-12-18T01:31:31;-0.80;68.10
32296;DHT22;18781;51.550;5.418;2022-12-18T01:34:00;-0.80;68.00
32296;DHT22;18781;51.550;5.418;2022-12-18T01:36:39;-0.80;68.10
32296;DHT22;18781;51.550;5.418;2022-12-18T01:39:12;-0.80;68.20
32296;DHT22;18781;51.550;5.418;2022-12-18T01:41:38;-0.90;68.20
32296;DHT22;18781;51.550;5.418;2022-12-18T01:50:00;-1.00;68.10
32296;DHT22;18781;51.550;5.418;2022-12-18T01:52:30;-1.00;68.20
32296;DHT22;18781;51.550;5.418;2022-12-18T01:54:56;-1.00;68.30
32296;DHT22;18781;51.550;5.418;2022-12-18T01:57:23;-1.00;68.30
32296;DHT22;18781;51.550;5.418;2022-12-18T01:59:52;-1.00;68.40
32296;DHT22;18781;51.550;5.418;2022-12-18T02:02:20;-1.00;68.40
32296;DHT22;18781;51.550;5.418;2022-12-18T02:04:46;-1.00;68.30
32296;DHT22;18781;51.550;5.418;2022-12-18T02:07:20;-1.00;68.80
32296;DHT22;18781;51.550;5.418;2022-12-18T02:09:53;-1.00;68.20
32296;DHT22;18781;51.550;5.418;2022-12-18T02:12:24;-1.00;68.20
32296;DHT22;18781;51.550;5.418;2022-12-18T02:15:05;-1.10;68.10
32296;DHT22;18781;51.550;5.418;2022-12-18T02:17:56;-1.10;68.10
32296;DHT22;18781;51.550;5.418;2022-12-18T02:26:32;-1.20;68.20
32296;DHT22;18781;51.550;5.418;2022-12-18T02:29:03;-1.20;68.30
32296;DHT22;18781;51.550;5.418;2022-12-18T02:31:51;-1.20;68.30
32296;DHT22;18781;51.550;5.418;2022-12-18T02:34:18;-1.20;68.30
32296;DHT22;18781;51.550;5.418;2022-12-18T02:36:46;-1.20;68.40
32296;DHT22;18781;51.550;5.418;2022-12-18T02:39:13;-1.20;68.30
32296;DHT22;18781;51.550;5.418;2022-12-18T02:41:40;-1.20;68.30
32296;DHT22;18781;51.550;5.418;2022-12-18T02:44:09;-1.20;68.30
32296;DHT22;18781;51.550;5.418;2022-12-18T02:46:39;-1.20;68.20
32296;DHT22;18781;51.550;5.418;2022-12-18T02:49:06;-1.20;68.20
32296;DHT22;18781;51.550;5.418;2022-12-18T02:54:27;-1.30;67.90
32296;DHT22;18781;51.550;5.418;2022-12-18T02:57:01;-1.30;68.10
32296;DHT22;18781;51.550;5.418;2022-12-18T02:59:37;-1.30;68.10
32296;DHT22;18781;51.550;5.418;2022-12-18T03:02:57;-1.30;68.00
32296;DHT22;18781;51.550;5.418;2022-12-18T03:05:22;-1.40;67.90
32296;DHT22;18781;51.550;5.418;2022-12-18T03:08:12;-1.40;67.80
32296;DHT22;18781;51.550;5.418;2022-12-18T03:10:45;-1.40;67.80
32296;DHT22;18781;51.550;5.418;2022-12-18T03:13:26;-1.50;67.70
32296;DHT22;18781;51.550;5.418;2022-12-18T03:15:55;-1.50;67.60
32296;DHT22;18781;51.550;5.418;2022-12-18T03:21:05;-1.60;67.80
32296;DHT22;18781;51.550;5.418;2022-12-18T03:23:39;-1.60;67.90
32296;DHT22;18781;51.550;5.418;2022-12-18T03:26:09;-1.60;68.00
32296;DHT22;18781;51.550;5.418;2022-12-18T03:28:58;-1.60;68.00
32296;DHT22;18781;51.550;5.418;2022-12-18T03:31:28;-1.60;68.00
32296;DHT22;18781;51.550;5.418;2022-12-18T03:33:55;-1.60;68.10
32296;DHT22;18781;51.550;5.418;2022-12-18T03:36:22;-1.60;68.10
32296;DHT22;18781;51.550;5.418;2022-12-18T03:38:49;-1.70;68.00
32296;DHT22;18781;51.550;5.418;2022-12-18T03:44:19;-1.70;67.90
32296;DHT22;18781;51.550;5.418;2022-12-18T03:47:03;-1.70;67.70
32296;DHT22;18781;51.550;5.418;2022-12-18T03:52:18;-1.80;67.90
32296;DHT22;18781;51.550;5.418;2022-12-18T03:54:46;-1.80;68.00
32296;DHT22;18781;51.550;5.418;2022-12-18T03:57:17;-1.80;68.00
32296;DHT22;18781;51.550;5.418;2022-12-18T03:59:46;-1.80;68.10
32296;DHT22;18781;51.550;5.418;2022-12-18T04:02:15;-1.80;68.00
32296;DHT22;18781;51.550;5.418;2022-12-18T04:04:43;-1.80;68.00
32296;DHT22;18781;51.550;5.418;2022-12-18T04:07:10;-1.80;67.90
32296;DHT22;18781;51.550;5.418;2022-12-18T04:09:39;-1.80;68.00
32296;DHT22;18781;51.550;5.418;2022-12-18T04:12:06;-1.90;67.90
32296;DHT22;18781;51.550;5.418;2022-12-18T04:14:32;-1.90;67.90
32296;DHT22;18781;51.550;5.418;2022-12-18T04:17:01;-1.80;68.00
32296;DHT22;18781;51.550;5.418;2022-12-18T04:19:27;-1.90;68.00
32296;DHT22;18781;51.550;5.418;2022-12-18T04:21:52;-1.90;67.90
32296;DHT22;18781;51.550;5.418;2022-12-18T04:24:18;-1.90;67.90
32296;DHT22;18781;51.550;5.418;2022-12-18T04:26:43;-1.90;68.00
32296;DHT22;18781;51.550;5.418;2022-12-18T04:29:09;-1.90;68.00
32296;DHT22;18781;51.550;5.418;2022-12-18T04:31:34;-1.90;68.10
32296;DHT22;18781;51.550;5.418;2022-12-18T04:34:00;-2.00;68.00
32296;DHT22;18781;51.550;5.418;2022-12-18T04:36:26;-2.00;68.10
32296;DHT22;18781;51.550;5.418;2022-12-18T04:38:51;-1.90;68.80
32296;DHT22;18781;51.550;5.418;2022-12-18T04:41:17;-2.00;68.10
32296;DHT22;18781;51.550;5.418;2022-12-18T04:43:42;-2.00;68.10
32296;DHT22;18781;51.550;5.418;2022-12-18T04:46:08;-1.90;68.20
32296;DHT22;18781;51.550;5.418;2022-12-18T04:48:34;-2.00;68.10
32296;DHT22;18781;51.550;5.418;2022-12-18T04:51:00;-1.90;68.10
32296;DHT22;18781;51.550;5.418;2022-12-18T04:53:26;-1.90;68.10
32296;DHT22;18781;51.550;5.418;2022-12-18T04:56:05;-2.00;68.10
32296;DHT22;18781;51.550;5.418;2022-12-18T04:58:32;-2.00;68.00
32296;DHT22;18781;51.550;5.418;2022-12-18T05:00:57;-2.00;68.10
32296;DHT22;18781;51.550;5.418;2022-12-18T05:03:23;-1.90;68.10
32296;DHT22;18781;51.550;5.418;2022-12-18T05:05:52;-2.00;68.00
32296;DHT22;18781;51.550;5.418;2022-12-18T05:08:18;-2.00;67.80
32296;DHT22;18781;51.550;5.418;2022-12-18T05:10:44;-2.00;67.70
32296;DHT22;18781;51.550;5.418;2022-12-18T05:13:09;-2.00;67.70
32296;DHT22;18781;51.550;5.418;2022-12-18T05:15:35;-2.00;67.70
32296;DHT22;18781;51.550;5.418;2022-12-18T05:18:02;-2.00;67.50
32296;DHT22;18781;51.550;5.418;2022-12-18T05:20:28;-2.00;67.50
32296;DHT22;18781;51.550;5.418;2022-12-18T05:22:54;-2.00;67.50
32296;DHT22;18781;51.550;5.418;2022-12-18T05:25:20;-2.10;67.50
32296;DHT22;18781;51.550;5.418;2022-12-18T05:27:45;-2.10;67.40
32296;DHT22;18781;51.550;5.418;2022-12-18T05:30:12;-2.10;67.40
32296;DHT22;18781;51.550;5.418;2022-12-18T05:32:38;-2.10;67.40
32296;DHT22;18781;51.550;5.418;2022-12-18T05:35:05;-2.10;67.40
32296;DHT22;18781;51.550;5.418;2022-12-18T05:37:31;-2.20;67.30
32296;DHT22;18781;51.550;5.418;2022-12-18T05:39:57;-2.20;67.40
32296;DHT22;18781;51.550;5.418;2022-12-18T05:42:22;-2.20;67.60
32296;DHT22;18781;51.550;5.418;2022-12-18T05:44:48;-2.20;67.70
32296;DHT22;18781;51.550;5.418;2022-12-18T05:47:13;-2.20;67.70
32296;DHT22;18781;51.550;5.418;2022-12-18T05:49:39;-2.20;67.70
32296;DHT22;18781;51.550;5.418;2022-12-18T05:52:05;-2.30;67.50
32296;DHT22;18781;51.550;5.418;2022-12-18T05:54:30;-2.30;67.50
32296;DHT22;18781;51.550;5.418;2022-12-18T05:56:56;-2.30;67.50
32296;DHT22;18781;51.550;5.418;2022-12-18T05:59:22;-2.30;67.60
32296;DHT22;18781;51.550;5.418;2022-12-18T06:01:48;-2.30;67.70
32296;DHT22;18781;51.550;5.418;2022-12-18T06:04:14;-2.30;67.70
32296;DHT22;18781;51.550;5.418;2022-12-18T06:06:39;-2.30;67.70
32296;DHT22;18781;51.550;5.418;2022-12-18T06:09:05;-2.30;67.80
32296;DHT22;18781;51.550;5.418;2022-12-18T06:11:35;-2.30;67.80
32296;DHT22;18781;51.550;5.418;2022-12-18T06:14:02;-2.30;67.80
32296;DHT22;18781;51.550;5.418;2022-12-18T06:16:28;-2.30;67.80
32296;DHT22;18781;51.550;5.418;2022-12-18T06:19:01;-2.30;67.80
32296;DHT22;18781;51.550;5.418;2022-12-18T06:21:28;-2.30;67.80
32296;DHT22;18781;51.550;5.418;2022-12-18T06:23:54;-2.30;67.80
32296;DHT22;18781;51.550;5.418;2022-12-18T06:26:20;-2.30;67.80
32296;DHT22;18781;51.550;5.418;2022-12-18T06:28:46;-2.30;67.80
32296;DHT22;18781;51.550;5.418;2022-12-18T06:31:11;-2.30;67.80
32296;DHT22;18781;51.550;5.418;2022-12-18T06:33:37;-2.30;67.70
32296;DHT22;18781;51.550;5.418;2022-12-18T06:36:11;-2.30;67.60
32296;DHT22;18781;51.550;5.418;2022-12-18T06:38:40;-2.40;67.50
32296;DHT22;18781;51.550;5.418;2022-12-18T06:41:09;-2.30;67.60
32296;DHT22;18781;51.550;5.418;2022-12-18T06:43:35;-2.40;67.40
32296;DHT22;18781;51.550;5.418;2022-12-18T06:46:01;-2.40;67.50
32296;DHT22;18781;51.550;5.418;2022-12-18T06:48:27;-2.40;67.50
32296;DHT22;18781;51.550;5.418;2022-12-18T06:50:53;-2.40;67.40
32296;DHT22;18781;51.550;5.418;2022-12-18T06:53:18;-2.40;67.30
32296;DHT22;18781;51.550;5.418;2022-12-18T06:55:44;-2.40;67.40
32296;DHT22;18781;51.550;5.418;2022-12-18T06:58:09;-2.50;67.40
32296;DHT22;18781;51.550;5.418;2022-12-18T07:00:35;-2.50;67.30
32296;DHT22;18781;51.550;5.418;2022-12-18T07:03:00;-2.50;67.30
32296;DHT22;18781;51.550;5.418;2022-12-18T07:05:26;-2.50;67.30
32296;DHT22;18781;51.550;5.418;2022-12-18T07:07:52;-2.50;67.30
32296;DHT22;18781;51.550;5.418;2022-12-18T07:10:17;-2.60;67.30
32296;DHT22;18781;51.550;5.418;2022-12-18T07:12:43;-2.50;67.40
32296;DHT22;18781;51.550;5.418;2022-12-18T07:15:09;-2.60;67.40
32296;DHT22;18781;51.550;5.418;2022-12-18T07:17:35;-2.60;67.40
32296;DHT22;18781;51.550;5.418;2022-12-18T07:20:00;-2.60;67.60
32296;DHT22;18781;51.550;5.418;2022-12-18T07:22:26;-2.60;67.70
32296;DHT22;18781;51.550;5.418;2022-12-18T07:24:52;-2.60;68.40
32296;DHT22;18781;51.550;5.418;2022-12-18T07:27:18;-2.60;67.80
32296;DHT22;18781;51.550;5.418;2022-12-18T07:29:43;-2.60;67.90
32296;DHT22;18781;51.550;5.418;2022-12-18T07:32:09;-2.60;67.90
32296;DHT22;18781;51.550;5.418;2022-12-18T07:34:34;-2.60;67.90
32296;DHT22;18781;51.550;5.418;2022-12-18T07:37:00;-2.60;67.90
32296;DHT22;18781;51.550;5.418;2022-12-18T07:39:26;-2.60;68.00
32296;DHT22;18781;51.550;5.418;2022-12-18T07:41:51;-2.60;68.10
32296;DHT22;18781;51.550;5.418;2022-12-18T07:44:36;-2.60;68.20
32296;DHT22;18781;51.550;5.418;2022-12-18T07:47:01;-2.60;68.20
32296;DHT22;18781;51.550;5.418;2022-12-18T07:49:27;-2.50;68.30
32296;DHT22;18781;51.550;5.418;2022-12-18T07:51:55;-2.50;68.40
32296;DHT22;18781;51.550;5.418;2022-12-18T07:54:22;-2.50;68.50
32296;DHT22;18781;51.550;5.418;2022-12-18T07:56:47;-2.50;68.50
32296;DHT22;18781;51.550;5.418;2022-12-18T07:59:13;-2.50;68.50
32296;DHT22;18781;51.550;5.418;2022-12-18T08:01:38;-2.50;68.60
32296;DHT22;18781;51.550;5.418;2022-12-18T08:04:04;-2.50;68.70
32296;DHT22;18781;51.550;5.418;2022-12-18T08:06:30;-2.50;68.70
32296;DHT22;18781;51.550;5.418;2022-12-18T08:08:56;-2.50;68.70
32296;DHT22;18781;51.550;5.418;2022-12-18T08:11:23;-2.40;68.80
32296;DHT22;18781;51.550;5.418;2022-12-18T08:13:49;-2.40;68.90
32296;DHT22;18781;51.550;5.418;2022-12-18T08:16:15;-2.40;69.00
32296;DHT22;18781;51.550;5.418;2022-12-18T08:18:41;-2.40;69.10
32296;DHT22;18781;51.550;5.418;2022-12-18T08:21:15;-2.40;69.10
32296;DHT22;18781;51.550;5.418;2022-12-18T08:23:40;-2.30;69.30
32296;DHT22;18781;51.550;5.418;2022-12-18T08:26:06;-2.30;69.20
32296;DHT22;18781;51.550;5.418;2022-12-18T08:28:32;-2.30;69.30
32296;DHT22;18781;51.550;5.418;2022-12-18T08:30:58;-2.20;69.40
32296;DHT22;18781;51.550;5.418;2022-12-18T08:33:24;-2.20;69.40
32296;DHT22;18781;51.550;5.418;2022-12-18T08:35:50;-2.20;69.50
32296;DHT22;18781;51.550;5.418;2022-12-18T08:38:15;-2.20;69.50
32296;DHT22;18781;51.550;5.418;2022-12-18T08:40:41;-2.10;69.60
32296;DHT22;18781;51.550;5.418;2022-12-18T08:43:09;-2.10;69.60
32296;DHT22;18781;51.550;5.418;2022-12-18T08:46:01;-2.00;69.60
32296;DHT22;18781;51.550;5.418;2022-12-18T08:48:27;-2.00;69.60
32296;DHT22;18781;51.550;5.418;2022-12-18T08:50:56;-1.90;69.70
32296;DHT22;18781;51.550;5.418;2022-12-18T08:53:22;-1.90;69.80
32296;DHT22;18781;51.550;5.418;2022-12-18T08:55:48;-1.90;69.70
32296;DHT22;18781;51.550;5.418;2022-12-18T08:58:13;-1.80;69.70
32296;DHT22;18781;51.550;5.418;2022-12-18T09:00:39;-1.80;69.90
32296;DHT22;18781;51.550;5.418;2022-12-18T09:03:04;-1.80;69.90
32296;DHT22;18781;51.550;5.418;2022-12-18T09:05:30;-1.70;69.90
32296;DHT22;18781;51.550;5.418;2022-12-18T09:07:55;-1.70;70.40
32296;DHT22;18781;51.550;5.418;2022-12-18T09:10:21;-1.60;70.00
32296;DHT22;18781;51.550;5.418;2022-12-18T09:12:47;-1.60;70.00
32296;DHT22;18781;51.550;5.418;2022-12-18T09:15:13;-1.60;70.00
32296;DHT22;18781;51.550;5.418;2022-12-18T09:17:38;-1.50;70.20
32296;DHT22;18781;51.550;5.418;2022-12-18T09:20:04;-1.50;70.10
32296;DHT22;18781;51.550;5.418;2022-12-18T09:22:30;-1.40;70.10
32296;DHT22;18781;51.550;5.418;2022-12-18T09:24:56;-1.40;70.20
32296;DHT22;18781;51.550;5.418;2022-12-18T09:27:21;-1.30;70.10
32296;DHT22;18781;51.550;5.418;2022-12-18T09:29:47;-1.30;70.10
32296;DHT22;18781;51.550;5.418;2022-12-18T09:32:12;-1.20;70.10
32296;DHT22;18781;51.550;5.418;2022-12-18T09:34:38;-1.20;70.00
32296;DHT22;18781;51.550;5.418;2022-12-18T09:37:03;-1.10;70.00
32296;DHT22;18781;51.550;5.418;2022-12-18T09:39:29;-1.10;69.90
32296;DHT22;18781;51.550;5.418;2022-12-18T09:41:57;-1.10;70.00
32296;DHT22;18781;51.550;5.418;2022-12-18T09:44:42;-1.00;70.00
32296;DHT22;18781;51.550;5.418;2022-12-18T09:47:30;-1.00;70.10
32296;DHT22;18781;51.550;5.418;2022-12-18T09:50:01;-0.90;70.00
32296;DHT22;18781;51.550;5.418;2022-12-18T09:52:29;-0.90;69.90
32296;DHT22;18781;51.550;5.418;2022-12-18T09:55:05;-0.80;70.20
32296;DHT22;18781;51.550;5.418;2022-12-18T09:57:33;-0.80;70.50
32296;DHT22;18781;51.550;5.418;2022-12-18T10:00:11;-0.80;69.80
32296;DHT22;18781;51.550;5.418;2022-12-18T10:02:40;-0.70;69.90
32296;DHT22;18781;51.550;5.418;2022-12-18T10:05:10;-0.70;69.90
32296;DHT22;18781;51.550;5.418;2022-12-18T10:10:30;-0.60;70.00
32296;DHT22;18781;51.550;5.418;2022-12-18T10:13:12;-0.50;70.10
32296;DHT22;18781;51.550;5.418;2022-12-18T10:15:51;-0.50;70.10
32296;DHT22;18781;51.550;5.418;2022-12-18T10:21:26;-0.40;70.20
32296;DHT22;18781;51.550;5.418;2022-12-18T10:24:17;-0.30;70.00
32296;DHT22;18781;51.550;5.418;2022-12-18T10:26:47;-0.30;70.00
32296;DHT22;18781;51.550;5.418;2022-12-18T10:29:15;-0.20;70.00
32296;DHT22;18781;51.550;5.418;2022-12-18T10:31:41;-0.20;70.00
32296;DHT22;18781;51.550;5.418;2022-12-18T10:34:11;-0.20;69.90
32296;DHT22;18781;51.550;5.418;2022-12-18T10:36:37;-0.10;70.10
32296;DHT22;18781;51.550;5.418;2022-12-18T10:39:23;0.00;70.10
32296;DHT22;18781;51.550;5.418;2022-12-18T10:41:50;0.00;70.00
32296;DHT22;18781;51.550;5.418;2022-12-18T10:46:44;0.10;70.00
32296;DHT22;18781;51.550;5.418;2022-12-18T10:49:27;0.20;70.10
32296;DHT22;18781;51.550;5.418;2022-12-18T10:52:20;0.30;70.10
32296;DHT22;18781;51.550;5.418;2022-12-18T10:54:51;0.30;70.00
32296;DHT22;18781;51.550;5.418;2022-12-18T10:57:30;0.40;70.40
32296;DHT22;18781;51.550;5.418;2022-12-18T11:00:00;0.40;69.90
32296;DHT22;18781;51.550;5.418;2022-12-18T11:02:37;0.50;69.80
32296;DHT22;18781;51.550;5.418;2022-12-18T11:05:26;0.50;69.80
32296;DHT22;18781;51.550;5.418;2022-12-18T11:07:53;0.60;69.80
32296;DHT22;18781;51.550;5.418;2022-12-18T11:10:31;0.60;69.70
32296;DHT22;18781;51.550;5.418;2022-12-18T11:13:19;0.60;69.50
32296;DHT22;18781;51.550;5.418;2022-12-18T11:15:46;0.70;69.50
32296;DHT22;18781;51.550;5.418;2022-12-18T11:18:33;0.70;69.50
32296;DHT22;18781;51.550;5.418;2022-12-18T11:21:06;0.80;69.50
32296;DHT22;18781;51.550;5.418;2022-12-18T11:23:33;0.80;69.50
32296;DHT22;18781;51.550;5.418;2022-12-18T11:26:01;0.90;69.60
32296;DHT22;18781;51.550;5.418;2022-12-18T11:28:49;0.90;69.50
32296;DHT22;18781;51.550;5.418;2022-12-18T11:31:29;1.00;69.50
32296;DHT22;18781;51.550;5.418;2022-12-18T11:34:04;1.10;69.20
32296;DHT22;18781;51.550;5.418;2022-12-18T11:36:36;1.10;69.20
32296;DHT22;18781;51.550;5.418;2022-12-18T11:39:09;1.20;69.30
32296;DHT22;18781;51.550;5.418;2022-12-18T11:47:13;1.30;69.30
32296;DHT22;18781;51.550;5.418;2022-12-18T11:49:41;1.30;69.30
32296;DHT22;18781;51.550;5.418;2022-12-18T11:52:33;1.40;69.30
32296;DHT22;18781;51.550;5.418;2022-12-18T11:55:30;1.40;69.00
32296;DHT22;18781;51.550;5.418;2022-12-18T11:58:22;1.50;69.00
32296;DHT22;18781;51.550;5.418;2022-12-18T12:03:43;1.50;69.40
32296;DHT22;18781;51.550;5.418;2022-12-18T12:09:22;1.60;68.80
32296;DHT22;18781;51.550;5.418;2022-12-18T12:16:54;1.80;68.60
32296;DHT22;18781;51.550;5.418;2022-12-18T12:22:02;1.80;68.40
32296;DHT22;18781;51.550;5.418;2022-12-18T12:24:33;1.80;68.10
32296;DHT22;18781;51.550;5.418;2022-12-18T12:38:19;2.00;67.90
32296;DHT22;18781;51.550;5.418;2022-12-18T12:40:56;2.00;67.90
32296;DHT22;18781;51.550;5.418;2022-12-18T12:43:42;2.10;67.90
32296;DHT22;18781;51.550;5.418;2022-12-18T12:46:11;2.10;67.60
32296;DHT22;18781;51.550;5.418;2022-12-18T12:49:00;2.10;67.80
32296;DHT22;18781;51.550;5.418;2022-12-18T12:51:36;2.20;67.50
32296;DHT22;18781;51.550;5.418;2022-12-18T12:54:11;2.20;67.50
32296;DHT22;18781;51.550;5.418;2022-12-18T12:56:45;2.20;67.60
32296;DHT22;18781;51.550;5.418;2022-12-18T13:04:27;2.30;67.50
32296;DHT22;18781;51.550;5.418;2022-12-18T13:07:10;2.30;67.40
32296;DHT22;18781;51.550;5.418;2022-12-18T13:15:44;2.40;66.80
32296;DHT22;18781;51.550;5.418;2022-12-18T13:18:20;2.40;66.90
32296;DHT22;18781;51.550;5.418;2022-12-18T13:20:50;2.40;66.80
32296;DHT22;18781;51.550;5.418;2022-12-18T13:25:52;2.50;66.80
32296;DHT22;18781;51.550;5.418;2022-12-18T13:30:58;2.50;66.60
32296;DHT22;18781;51.550;5.418;2022-12-18T13:33:37;2.50;66.70
32296;DHT22;18781;51.550;5.418;2022-12-18T13:36:29;2.50;66.60
32296;DHT22;18781;51.550;5.418;2022-12-18T13:41:40;2.60;66.20
32296;DHT22;18781;51.550;5.418;2022-12-18T13:44:32;2.60;66.60
32296;DHT22;18781;51.550;5.418;2022-12-18T13:46:59;2.60;66.20
32296;DHT22;18781;51.550;5.418;2022-12-18T13:49:28;2.60;66.60
32296;DHT22;18781;51.550;5.418;2022-12-18T13:51:57;2.60;66.60
32296;DHT22;18781;51.550;5.418;2022-12-18T13:54:33;2.70;66.60
32296;DHT22;18781;51.550;5.418;2022-12-18T13:57:00;2.70;66.20
32296;DHT22;18781;51.550;5.418;2022-12-18T13:59:39;2.70;66.40
32296;DHT22;18781;51.550;5.418;2022-12-18T14:02:16;2.70;65.90
32296;DHT22;18781;51.550;5.418;2022-12-18T14:04:46;2.80;65.90
32296;DHT22;18781;51.550;5.418;2022-12-18T14:07:17;2.70;66.00
32296;DHT22;18781;51.550;5.418;2022-12-18T14:09:46;2.80;66.10
32296;DHT22;18781;51.550;5.418;2022-12-18T14:12:32;2.80;66.10
32296;DHT22;18781;51.550;5.418;2022-12-18T14:20:28;2.80;65.90
32296;DHT22;18781;51.550;5.418;2022-12-18T14:22:55;2.80;65.90
32296;DHT22;18781;51.550;5.418;2022-12-18T14:25:24;2.80;65.80
32296;DHT22;18781;51.550;5.418;2022-12-18T14:30:37;2.90;65.80
32296;DHT22;18781;51.550;5.418;2022-12-18T14:41:03;2.90;65.50
32296;DHT22;18781;51.550;5.418;2022-12-18T14:43:37;2.90;65.50
32296;DHT22;18781;51.550;5.418;2022-12-18T14:46:05;2.90;65.60
32296;DHT22;18781;51.550;5.418;2022-12-18T14:48:41;2.90;66.20
32296;DHT22;18781;51.550;5.418;2022-12-18T14:51:20;2.90;65.20
32296;DHT22;18781;51.550;5.418;2022-12-18T14:53:58;3.00;65.60
32296;DHT22;18781;51.550;5.418;2022-12-18T14:56:34;2.90;65.10
32296;DHT22;18781;51.550;5.418;2022-12-18T14:59:20;2.90;65.00
32296;DHT22;18781;51.550;5.418;2022-12-18T15:04:39;3.00;65.10
32296;DHT22;18781;51.550;5.418;2022-12-18T15:07:15;3.00;65.30
32296;DHT22;18781;51.550;5.418;2022-12-18T15:12:43;3.00;64.80
32296;DHT22;18781;51.550;5.418;2022-12-18T15:20:57;3.00;65.20
32296;DHT22;18781;51.550;5.418;2022-12-18T15:23:28;3.00;64.60
32296;DHT22;18781;51.550;5.418;2022-12-18T15:26:00;3.00;65.10
32296;DHT22;18781;51.550;5.418;2022-12-18T15:28:35;3.00;64.70
32296;DHT22;18781;51.550;5.418;2022-12-18T15:33:44;3.00;64.60
32296;DHT22;18781;51.550;5.418;2022-12-18T15:36:16;3.00;64.90
32296;DHT22;18781;51.550;5.418;2022-12-18T15:38:46;3.00;64.70
32296;DHT22;18781;51.550;5.418;2022-12-18T15:41:14;3.00;64.60
32296;DHT22;18781;51.550;5.418;2022-12-18T15:43:40;3.00;64.70
32296;DHT22;18781;51.550;5.418;2022-12-18T15:46:11;3.00;65.10
32296;DHT22;18781;51.550;5.418;2022-12-18T15:49:03;3.00;64.60
32296;DHT22;18781;51.550;5.418;2022-12-18T15:51:32;3.00;64.40
32296;DHT22;18781;51.550;5.418;2022-12-18T15:54:03;3.00;64.70
32296;DHT22;18781;51.550;5.418;2022-12-18T15:56:29;3.00;64.60
32296;DHT22;18781;51.550;5.418;2022-12-18T15:59:16;3.00;64.70
32296;DHT22;18781;51.550;5.418;2022-12-18T16:01:44;3.00;64.70
32296;DHT22;18781;51.550;5.418;2022-12-18T16:04:14;3.00;64.70
32296;DHT22;18781;51.550;5.418;2022-12-18T16:06:41;3.10;64.60
32296;DHT22;18781;51.550;5.418;2022-12-18T16:09:07;3.00;64.70
32296;DHT22;18781;51.550;5.418;2022-12-18T16:11:34;3.00;64.70
32296;DHT22;18781;51.550;5.418;2022-12-18T16:14:26;3.00;64.70
32296;DHT22;18781;51.550;5.418;2022-12-18T16:16:57;3.10;64.30
32296;DHT22;18781;51.550;5.418;2022-12-18T16:19:24;3.00;64.40
32296;DHT22;18781;51.550;5.418;2022-12-18T16:21:51;3.10;64.50
32296;DHT22;18781;51.550;5.418;2022-12-18T16:24:29;3.00;64.50
32296;DHT22;18781;51.550;5.418;2022-12-18T16:26:57;3.10;64.30
32296;DHT22;18781;51.550;5.418;2022-12-18T16:29:24;3.00;64.50
32296;DHT22;18781;51.550;5.418;2022-12-18T16:31:53;3.10;64.60
32296;DHT22;18781;51.550;5.418;2022-12-18T16:34:27;3.00;64.50
32296;DHT22;18781;51.550;5.418;2022-12-18T16:37:13;3.10;64.30
32296;DHT22;18781;51.550;5.418;2022-12-18T16:39:39;3.00;64.00
32296;DHT22;18781;51.550;5.418;2022-12-18T16:42:10;3.10;64.50
32296;DHT22;18781;51.550;5.418;2022-12-18T16:44:38;3.00;64.20
32296;DHT22;18781;51.550;5.418;2022-12-18T16:47:03;3.10;64.40
32296;DHT22;18781;51.550;5.418;2022-12-18T16:49:29;3.10;64.40
32296;DHT22;18781;51.550;5.418;2022-12-18T16:51:55;3.00;64.30
32296;DHT22;18781;51.550;5.418;2022-12-18T16:54:20;3.10;64.30
32296;DHT22;18781;51.550;5.418;2022-12-18T16:56:46;3.00;64.30
32296;DHT22;18781;51.550;5.418;2022-12-18T16:59:15;3.00;64.20
32296;DHT22;18781;51.550;5.418;2022-12-18T17:01:40;3.10;64.30
32296;DHT22;18781;51.550;5.418;2022-12-18T17:04:07;3.10;64.20
32296;DHT22;18781;51.550;5.418;2022-12-18T17:06:40;3.10;64.10
32296;DHT22;18781;51.550;5.418;2022-12-18T17:09:10;3.10;64.10
32296;DHT22;18781;51.550;5.418;2022-12-18T17:11:36;3.10;64.00
32296;DHT22;18781;51.550;5.418;2022-12-18T17:14:13;3.10;64.10
32296;DHT22;18781;51.550;5.418;2022-12-18T17:16:39;3.10;63.90
32296;DHT22;18781;51.550;5.418;2022-12-18T17:19:05;3.10;64.10
32296;DHT22;18781;51.550;5.418;2022-12-18T17:21:30;3.10;64.00
32296;DHT22;18781;51.550;5.418;2022-12-18T17:23:59;3.10;63.90
32296;DHT22;18781;51.550;5.418;2022-12-18T17:26:25;3.10;63.90
32296;DHT22;18781;51.550;5.418;2022-12-18T17:28:51;3.10;64.20
32296;DHT22;18781;51.550;5.418;2022-12-18T17:31:19;3.10;64.10
32296;DHT22;18781;51.550;5.418;2022-12-18T17:33:46;3.10;64.10
32296;DHT22;18781;51.550;5.418;2022-12-18T17:36:11;3.20;64.20
32296;DHT22;18781;51.550;5.418;2022-12-18T17:38:38;3.10;64.10
32296;DHT22;18781;51.550;5.418;2022-12-18T17:41:10;3.20;64.20
32296;DHT22;18781;51.550;5.418;2022-12-18T17:43:36;3.20;64.10
32296;DHT22;18781;51.550;5.418;2022-12-18T17:46:12;3.10;64.70